Time;durP1;ratioP1;P1;durP2;ratioP2;P2;SDS_P1;SDS_P2;PMS_P1;PMS_P2;Temp;Humidity;BMP_temperature;BMP_pressure;BME280_temperature;BME280_humidity;BME280_pressure;Samples;Min_cycle;Max_cycle;Signal;HPM_P1;HPM_P2
2021/12/05 00:17:35;;;;;;;2.47;1.80;;;5.80;99.90;;;;;;6284142;22;20159;-51
2021/12/05 00:22:36;;;;;;;6.32;1.88;;;5.50;99.90;;;;;;6283933;22;20186;-53
2021/12/05 00:25:07;;;;;;;2.85;1.58;;;5.80;99.90;;;;;;6284334;22;20150;-54
2021/12/05 00:27:46;;;;;;;3.53;1.67;;;5.60;99.90;;;;;;6284572;22;20144;-52
2021/12/05 00:30:43;;;;;;;4.05;2.03;;;5.60;99.90;;;;;;6274328;22;20648;-50
2021/12/05 00:41:19;;;;;;;1.40;1.20;;;5.40;99.90;;;;;;6283730;22;20142;-53
2021/12/05 00:57:27;;;;;;;3.72;2.47;;;5.70;99.90;;;;;;6283643;22;20139;-53
2021/12/05 01:16:15;;;;;;;3.30;1.58;;;5.90;99.90;;;;;;6218981;23;20500;-52
2021/12/05 01:18:41;;;;;;;3.15;1.40;;;5.30;99.90;;;;;;6218478;23;20159;-52
2021/12/05 01:21:13;;;;;;;2.23;1.40;;;5.80;99.90;;;;;;6251205;22;20232;-52
2021/12/05 01:24:00;;;;;;;1.77;1.20;;;5.10;99.90;;;;;;6284322;22;20393;-52
2021/12/05 01:27:11;;;;;;;1.63;1.08;;;5.30;99.90;;;;;;6284064;22;20444;-52
2021/12/05 01:29:38;;;;;;;2.38;1.15;;;5.60;99.90;;;;;;6271363;22;20176;-52
2021/12/05 01:37:59;;;;;;;2.33;1.30;;;5.50;99.90;;;;;;6199558;22;20629;-52
2021/12/05 01:40:50;;;;;;;1.90;1.23;;;5.60;99.90;;;;;;6283189;22;20621;-52
2021/12/05 02:03:09;;;;;;;1.52;1.40;;;5.70;99.90;;;;;;6283429;22;20586;-52
2021/12/05 02:35:41;;;;;;;2.17;1.30;;;5.30;99.90;;;;;;6283067;22;20137;-53
2021/12/05 02:43:05;;;;;;;1.98;1.38;;;5.40;99.90;;;;;;6283527;22;20184;-53
2021/12/05 02:45:34;;;;;;;1.83;1.15;;;5.20;99.90;;;;;;6283567;22;20187;-52
2021/12/05 02:48:00;;;;;;;3.65;1.52;;;5.20;99.90;;;;;;6273025;22;20492;-53
2021/12/05 02:50:30;;;;;;;2.77;1.47;;;4.80;99.90;;;;;;6283180;22;20189;-52
2021/12/05 02:53:02;;;;;;;2.22;1.30;;;5.10;99.90;;;;;;6272514;22;20414;-52
2021/12/05 02:55:42;;;;;;;2.40;1.50;;;5.30;99.90;;;;;;6282537;22;20807;-51
2021/12/05 03:03:28;;;;;;;2.35;1.00;;;5.30;99.90;;;;;;6283601;22;20183;-53
2021/12/05 03:06:05;;;;;;;3.17;1.40;;;5.40;99.90;;;;;;6283215;22;20149;-52
2021/12/05 03:08:31;;;;;;;2.30;1.83;;;5.40;99.90;;;;;;6283273;22;20142;-52
2021/12/05 03:10:59;;;;;;;2.10;1.20;;;5.30;99.90;;;;;;6283029;22;20184;-52
2021/12/05 03:13:25;;;;;;;1.77;1.25;;;5.30;99.90;;;;;;6282504;22;20185;-52
2021/12/05 03:15:51;;;;;;;1.65;1.40;;;4.80;99.90;;;;;;6282299;22;20145;-51
2021/12/05 03:18:17;;;;;;;3.13;1.80;;;5.50;99.90;;;;;;6282165;22;20671;-54
2021/12/05 03:20:43;;;;;;;2.27;1.27;;;5.70;99.90;;;;;;6282932;22;20242;-52
2021/12/05 03:23:09;;;;;;;2.17;1.23;;;5.50;99.90;;;;;;6282792;22;20409;-54
2021/12/05 03:25:35;;;;;;;2.43;1.13;;;5.30;99.90;;;;;;6282931;22;20155;-51
2021/12/05 03:28:02;;;;;;;4.47;2.00;;;5.40;99.90;;;;;;6283006;22;20384;-53
2021/12/05 03:30:28;;;;;;;2.03;1.52;;;5.50;99.90;;;;;;6283275;22;20620;-51
2021/12/05 03:32:55;;;;;;;1.80;1.20;;;5.30;99.90;;;;;;6282539;22;20168;-51
2021/12/05 03:35:24;;;;;;;2.92;1.10;;;5.50;99.90;;;;;;6283891;22;20149;-52
2021/12/05 03:37:51;;;;;;;2.28;1.20;;;5.70;99.90;;;;;;6283853;22;20580;-50
2021/12/05 03:40:21;;;;;;;2.58;1.40;;;5.50;99.90;;;;;;6284623;22;20151;-51
2021/12/05 03:42:47;;;;;;;2.95;1.40;;;5.50;99.90;;;;;;6283965;22;20177;-51
2021/12/05 03:45:19;;;;;;;3.67;1.33;;;5.50;99.90;;;;;;6285388;22;20158;-51
2021/12/05 03:47:45;;;;;;;6.10;1.70;;;5.40;99.90;;;;;;6284480;22;20141;-51
2021/12/05 03:50:13;;;;;;;2.10;1.20;;;5.20;99.90;;;;;;6273999;22;20511;-52
2021/12/05 03:52:40;;;;;;;1.30;1.05;;;5.50;99.90;;;;;;6272642;22;20237;-51
2021/12/05 03:55:09;;;;;;;1.55;1.33;;;5.10;99.90;;;;;;6284176;22;20532;-51
2021/12/05 03:57:35;;;;;;;2.40;1.27;;;5.10;99.90;;;;;;6283937;22;20196;-51
2021/12/05 04:00:03;;;;;;;2.55;1.70;;;5.00;99.90;;;;;;6284674;22;20156;-53
2021/12/05 04:02:28;;;;;;;1.83;1.10;;;4.90;99.90;;;;;;6283955;22;20174;-51
2021/12/05 04:04:54;;;;;;;1.40;1.10;;;5.00;99.90;;;;;;6284799;22;20155;-50
2021/12/05 04:07:20;;;;;;;2.40;1.30;;;4.90;99.90;;;;;;6284464;22;20643;-51
2021/12/05 04:09:46;;;;;;;5.27;1.20;;;4.90;99.90;;;;;;6284383;22;20607;-51
2021/12/05 04:12:15;;;;;;;3.85;1.70;;;5.10;99.90;;;;;;6284775;22;20201;-51
2021/12/05 04:14:44;;;;;;;3.38;1.60;;;4.90;99.90;;;;;;6284273;22;20149;-51
2021/12/05 04:17:12;;;;;;;2.95;1.20;;;5.00;99.90;;;;;;6283660;22;20145;-53
2021/12/05 04:19:38;;;;;;;2.65;1.10;;;5.00;99.90;;;;;;6284013;22;20669;-51
2021/12/05 04:22:06;;;;;;;2.28;1.17;;;4.80;99.90;;;;;;6272991;22;20498;-51
2021/12/05 04:24:32;;;;;;;3.65;1.38;;;4.90;99.90;;;;;;6284638;22;20483;-52
2021/12/05 04:26:58;;;;;;;4.10;1.40;;;5.00;99.90;;;;;;6284706;22;20176;-51
2021/12/05 04:29:24;;;;;;;3.33;1.47;;;5.10;99.90;;;;;;6284632;22;20199;-51
2021/12/05 04:31:50;;;;;;;3.63;1.10;;;5.20;99.90;;;;;;6285531;22;20384;-51
2021/12/05 04:34:16;;;;;;;5.20;1.80;;;4.90;99.90;;;;;;6283667;22;20236;-51
2021/12/05 04:36:43;;;;;;;2.95;1.02;;;5.30;99.90;;;;;;6284267;22;20604;-51
2021/12/05 04:39:10;;;;;;;3.28;1.55;;;5.20;99.90;;;;;;6283738;22;20155;-52
2021/12/05 04:41:39;;;;;;;1.85;1.13;;;5.10;99.90;;;;;;6272690;22;20232;-52
2021/12/05 04:44:06;;;;;;;5.10;1.35;;;5.40;99.90;;;;;;6284218;22;20291;-51
2021/12/05 04:46:32;;;;;;;1.80;1.10;;;5.40;99.90;;;;;;6283980;22;20149;-51
2021/12/05 04:48:58;;;;;;;2.70;1.55;;;5.10;99.90;;;;;;6284062;22;20222;-52
2021/12/05 04:51:32;;;;;;;4.50;1.80;;;5.30;99.90;;;;;;6283890;22;20259;-51
2021/12/05 04:53:58;;;;;;;1.52;1.33;;;5.30;99.90;;;;;;6283967;22;20168;-50
2021/12/05 04:56:28;;;;;;;3.17;1.50;;;5.20;99.90;;;;;;6283307;22;20146;-51
2021/12/05 04:58:54;;;;;;;2.20;1.40;;;5.30;99.90;;;;;;6271984;22;20427;-51
2021/12/05 05:01:21;;;;;;;2.13;1.30;;;5.00;99.90;;;;;;6273219;22;20496;-51
2021/12/05 05:03:47;;;;;;;2.10;1.55;;;5.10;99.90;;;;;;6273165;22;20510;-52
2021/12/05 05:06:18;;;;;;;4.10;1.50;;;5.30;99.90;;;;;;6284220;22;20164;-50
2021/12/05 05:08:47;;;;;;;2.20;1.17;;;5.10;99.90;;;;;;6283992;22;20144;-51
2021/12/05 05:11:14;;;;;;;1.77;1.30;;;5.30;99.90;;;;;;6284078;22;20631;-52
2021/12/05 05:13:41;;;;;;;2.53;1.52;;;5.20;99.90;;;;;;6283126;22;20181;-52
2021/12/05 05:16:08;;;;;;;3.70;0.80;;;4.90;99.90;;;;;;6283653;22;20152;-53
2021/12/05 05:21:14;;;;;;;2.10;1.30;;;4.60;99.90;;;;;;6283849;22;20340;-52
2021/12/05 05:26:44;;;;;;;4.47;1.40;;;4.10;99.90;;;;;;6284225;22;20349;-51
2021/12/05 05:40:07;;;;;;;6.10;1.23;;;4.60;99.90;;;;;;6283566;22;20272;-51
2021/12/05 05:50:37;;;;;;;2.33;1.38;;;3.90;99.90;;;;;;6283699;22;20189;-51
2021/12/05 05:53:03;;;;;;;4.70;1.45;;;4.20;99.90;;;;;;6273186;22;20177;-51
2021/12/05 05:55:28;;;;;;;2.30;1.30;;;3.90;99.90;;;;;;6282735;22;20287;-51
2021/12/05 06:00:33;;;;;;;1.20;1.10;;;3.60;99.90;;;;;;6284018;22;20163;-51
2021/12/05 06:05:44;;;;;;;3.30;1.38;;;4.60;99.90;;;;;;6283112;22;20152;-51
2021/12/05 06:08:10;;;;;;;1.10;1.00;;;4.20;99.90;;;;;;6283090;22;20224;-49
2021/12/05 06:10:36;;;;;;;1.20;1.10;;;4.20;99.90;;;;;;6272506;22;20184;-52
2021/12/05 06:13:02;;;;;;;3.07;1.40;;;4.10;99.90;;;;;;6283864;22;20686;-50
2021/12/05 06:15:29;;;;;;;2.75;0.93;;;3.60;99.90;;;;;;6284636;22;20386;-50
2021/12/05 06:17:56;;;;;;;8.20;1.45;;;4.20;99.90;;;;;;6274181;22;20159;-49
2021/12/05 06:20:25;;;;;;;1.90;1.30;;;4.20;99.90;;;;;;6283266;22;20153;-51
2021/12/05 06:22:52;;;;;;;3.40;1.60;;;4.10;99.90;;;;;;6281962;22;20405;-49
2021/12/05 06:25:24;;;;;;;4.55;1.75;;;4.40;99.90;;;;;;6282729;22;20704;-50
2021/12/05 06:27:56;;;;;;;2.65;1.02;;;4.30;99.90;;;;;;6283517;22;20133;-51
2021/12/05 06:31:42;;;;;;;2.75;1.30;;;4.20;99.90;;;;;;6283196;22;20226;-50
2021/12/05 06:41:34;;;;;;;2.55;1.20;;;4.10;99.90;;;;;;6283522;22;20156;-50
2021/12/05 06:46:44;;;;;;;1.40;1.25;;;3.80;99.90;;;;;;6283725;22;20228;-51
2021/12/05 06:49:10;;;;;;;4.57;1.40;;;3.90;99.90;;;;;;6281854;22;20646;-51
2021/12/05 06:51:36;;;;;;;3.70;1.20;;;4.00;99.90;;;;;;6282904;22;20160;-50
2021/12/05 06:54:02;;;;;;;1.30;1.20;;;3.80;99.90;;;;;;6273416;22;20403;-50
2021/12/05 06:56:28;;;;;;;1.88;1.20;;;3.80;99.90;;;;;;6282384;22;20152;-51
2021/12/05 06:58:54;;;;;;;1.60;1.40;;;4.00;99.90;;;;;;6283383;22;20176;-51
2021/12/05 07:01:21;;;;;;;4.03;1.20;;;3.80;99.90;;;;;;6273136;22;20520;-51
2021/12/05 07:03:49;;;;;;;2.67;1.42;;;3.90;99.90;;;;;;6282635;22;20688;-51
2021/12/05 07:06:30;;;;;;;2.03;1.02;;;4.10;99.90;;;;;;6283114;22;20161;-51
2021/12/05 07:09:01;;;;;;;2.22;1.17;;;3.90;99.90;;;;;;6283447;22;20514;-51
2021/12/05 07:17:00;;;;;;;1.10;1.00;;;4.00;99.90;;;;;;6271720;22;20160;-51
2021/12/05 07:22:12;;;;;;;1.55;1.10;;;4.10;99.90;;;;;;6285290;22;20401;-51
2021/12/05 07:24:59;;;;;;;1.75;1.25;;;4.00;99.90;;;;;;6284687;22;20133;-51
2021/12/05 07:43:41;;;;;;;4.93;1.50;;;4.30;99.90;;;;;;6285623;22;20173;-51
2021/12/05 07:46:07;;;;;;;2.67;1.73;;;4.20;99.90;;;;;;6284909;22;20153;-51
2021/12/05 07:48:36;;;;;;;1.65;1.48;;;4.50;99.90;;;;;;6272166;22;20457;-53
2021/12/05 07:53:50;;;;;;;2.03;1.60;;;4.30;99.90;;;;;;6284595;22;20169;-51
2021/12/05 08:15:23;;;;;;;1.85;1.55;;;4.10;99.90;;;;;;6284401;22;20152;-51
2021/12/05 08:17:52;;;;;;;2.70;1.95;;;4.00;99.90;;;;;;6283948;22;20137;-52
2021/12/05 08:20:30;;;;;;;2.33;1.67;;;4.30;99.90;;;;;;6272969;22;20246;-51
2021/12/05 08:22:56;;;;;;;2.33;2.13;;;3.80;99.90;;;;;;6284043;22;20229;-51
2021/12/05 08:25:26;;;;;;;3.07;2.43;;;3.90;99.90;;;;;;6284530;22;20156;-51
2021/12/05 08:27:57;;;;;;;3.45;2.42;;;3.80;99.90;;;;;;6283655;22;20400;-51
2021/12/05 08:30:32;;;;;;;3.97;2.13;;;4.00;99.90;;;;;;6284343;22;20169;-51
2021/12/05 09:08:45;;;;;;;1.65;1.50;;;5.10;99.90;;;;;;6283295;22;20260;-51
2021/12/05 09:25:08;;;;;;;1.60;1.25;;;6.50;99.90;;;;;;6283612;22;20144;-52
2021/12/05 10:03:09;;;;;;;1.45;1.10;;;10.10;95.60;;;;;;6282621;22;20180;-53
2021/12/05 10:36:01;;;;;;;4.40;1.00;;;11.70;91.90;;;;;;6283954;22;20605;-52
2021/12/05 10:38:38;;;;;;;1.05;0.90;;;10.90;92.40;;;;;;6272469;22;20514;-51
2021/12/05 10:43:41;;;;;;;2.15;1.95;;;9.30;95.00;;;;;;6283538;22;20168;-53
2021/12/05 10:46:10;;;;;;;6.10;2.65;;;9.30;96.10;;;;;;6286025;22;20175;-51
2021/12/05 10:48:45;;;;;;;1.80;0.90;;;8.90;96.50;;;;;;6284513;22;20194;-52
2021/12/05 10:51:31;;;;;;;1.98;1.10;;;8.90;96.40;;;;;;6272383;22;20626;-51
2021/12/05 10:54:21;;;;;;;1.30;0.90;;;8.70;96.60;;;;;;6272245;22;20505;-51
2021/12/05 10:56:51;;;;;;;2.40;1.08;;;8.80;96.70;;;;;;6283053;22;20129;-53
2021/12/05 10:59:20;;;;;;;2.03;1.20;;;9.20;96.60;;;;;;6280263;22;20580;-52
2021/12/05 11:02:02;;;;;;;1.10;0.90;;;9.40;95.90;;;;;;6283411;22;20152;-51
2021/12/05 11:04:33;;;;;;;1.17;0.90;;;9.50;96.40;;;;;;6282583;22;20176;-51
2021/12/05 11:07:05;;;;;;;1.23;1.00;;;9.60;96.20;;;;;;6282575;22;20614;-49
2021/12/05 11:09:33;;;;;;;1.13;0.93;;;9.70;96.10;;;;;;6281780;22;20584;-52
2021/12/05 11:12:15;;;;;;;2.25;1.17;;;9.70;95.00;;;;;;6282478;22;20233;-52
2021/12/05 11:14:42;;;;;;;0.85;0.75;;;9.80;95.40;;;;;;6272517;22;20317;-49
2021/12/05 11:17:18;;;;;;;1.67;1.10;;;9.20;94.90;;;;;;6282742;22;20549;-52
2021/12/05 11:20:07;;;;;;;0.93;0.73;;;9.60;95.50;;;;;;6270932;22;20157;-51
2021/12/05 11:22:39;;;;;;;2.38;1.00;;;9.60;95.70;;;;;;6282465;22;20701;-51
2021/12/05 11:25:10;;;;;;;1.38;1.00;;;9.30;95.40;;;;;;6282378;22;20145;-52
2021/12/05 11:27:39;;;;;;;2.75;1.00;;;9.60;96.20;;;;;;6282659;22;20473;-50
2021/12/05 11:30:13;;;;;;;1.98;0.80;;;9.50;95.70;;;;;;6271252;22;20195;-52
2021/12/05 11:32:51;;;;;;;1.27;0.90;;;9.50;95.90;;;;;;6282662;22;20194;-52
2021/12/05 11:35:37;;;;;;;1.67;1.25;;;9.30;95.70;;;;;;6282407;22;20529;-51
2021/12/05 11:38:22;;;;;;;1.45;1.00;;;9.20;95.60;;;;;;6272318;22;20612;-52
2021/12/05 11:40:53;;;;;;;1.42;1.00;;;8.70;95.80;;;;;;6283018;22;20187;-52
2021/12/05 11:43:23;;;;;;;1.77;1.25;;;8.40;96.50;;;;;;6271863;22;20172;-51
2021/12/05 11:45:49;;;;;;;1.67;1.15;;;8.20;96.60;;;;;;6272600;22;20474;-52
2021/12/05 11:48:21;;;;;;;1.10;0.97;;;8.00;97.40;;;;;;6272281;22;20164;-52
2021/12/05 11:50:48;;;;;;;1.30;1.13;;;8.40;98.30;;;;;;6228790;22;1152067;-52
2021/12/05 11:53:14;;;;;;;2.40;1.50;;;7.50;97.90;;;;;;6274243;22;20176;-52
2021/12/05 11:55:40;;;;;;;2.17;1.15;;;7.70;98.30;;;;;;6284133;22;20222;-52
2021/12/05 11:58:17;;;;;;;1.27;1.05;;;8.10;98.60;;;;;;6284367;22;20176;-52
2021/12/05 12:00:44;;;;;;;1.27;1.08;;;8.00;99.10;;;;;;6284454;22;20144;-51
2021/12/05 12:03:10;;;;;;;1.10;1.00;;;8.20;98.50;;;;;;6273439;22;20247;-52
2021/12/05 12:05:37;;;;;;;2.20;1.08;;;8.10;98.70;;;;;;6284601;22;20153;-52
2021/12/05 12:08:08;;;;;;;3.45;1.55;;;8.00;98.70;;;;;;6273747;22;20276;-53
2021/12/05 12:10:44;;;;;;;1.80;1.20;;;8.20;98.60;;;;;;6284420;22;20507;-52
2021/12/05 12:13:23;;;;;;;1.60;1.50;;;8.60;98.30;;;;;;6273692;22;20220;-52
2021/12/05 12:15:58;;;;;;;1.77;1.30;;;8.60;98.80;;;;;;6284663;22;20166;-52
2021/12/05 12:18:30;;;;;;;2.35;1.40;;;9.10;99.00;;;;;;6283855;22;20490;-50
2021/12/05 12:21:21;;;;;;;2.80;1.30;;;9.10;98.70;;;;;;6284365;22;20129;-50
2021/12/05 12:23:50;;;;;;;2.40;1.15;;;9.00;98.60;;;;;;6259255;22;20176;-51
2021/12/05 12:26:17;;;;;;;1.00;0.90;;;9.40;98.60;;;;;;6273693;22;20232;-52
2021/12/05 12:28:42;;;;;;;1.95;0.98;;;8.80;97.50;;;;;;6284296;22;20158;-53
2021/12/05 12:31:17;;;;;;;3.20;1.10;;;9.00;97.70;;;;;;6284446;22;20251;-52
2021/12/05 12:33:54;;;;;;;1.60;1.05;;;8.90;98.30;;;;;;6273532;22;20407;-51
2021/12/05 12:36:43;;;;;;;1.52;1.42;;;8.80;98.60;;;;;;6284273;22;20199;-53
2021/12/05 12:39:19;;;;;;;2.40;1.30;;;8.10;98.20;;;;;;6273765;22;20152;-53
2021/12/05 12:42:05;;;;;;;1.88;1.20;;;8.50;98.80;;;;;;6270452;22;20156;-53
2021/12/05 12:44:31;;;;;;;2.00;1.38;;;8.50;98.50;;;;;;6282966;22;20140;-53
2021/12/05 12:47:01;;;;;;;1.60;1.02;;;8.50;98.00;;;;;;6283448;22;20175;-53
2021/12/05 12:49:38;;;;;;;1.70;0.95;;;8.40;98.20;;;;;;6284585;22;20425;-54
2021/12/05 12:52:11;;;;;;;2.28;1.10;;;8.40;98.10;;;;;;6284127;22;20175;-51
2021/12/05 12:54:57;;;;;;;1.10;1.00;;;8.20;98.40;;;;;;6273479;22;20603;-51
2021/12/05 12:57:31;;;;;;;1.58;1.05;;;8.20;97.60;;;;;;6273691;22;20159;-52
2021/12/05 13:00:02;;;;;;;1.70;1.10;;;8.40;98.00;;;;;;6283455;22;20160;-51
2021/12/05 13:02:57;;;;;;;3.72;1.02;;;8.40;98.00;;;;;;6284466;22;20168;-52
2021/12/05 13:05:42;;;;;;;1.75;0.90;;;8.30;98.10;;;;;;6283981;22;20132;-53
2021/12/05 13:11:11;;;;;;;2.05;1.30;;;8.20;98.10;;;;;;6283498;22;20174;-53
2021/12/05 13:13:40;;;;;;;3.72;1.02;;;8.10;98.40;;;;;;6284075;22;20172;-52
2021/12/05 13:16:11;;;;;;;1.95;1.55;;;8.00;98.10;;;;;;6283952;22;20141;-52
2021/12/05 13:18:40;;;;;;;3.22;1.15;;;8.10;98.10;;;;;;6284207;22;20148;-51
2021/12/05 13:21:25;;;;;;;2.55;1.27;;;8.20;98.50;;;;;;6273470;22;20161;-51
2021/12/05 13:23:51;;;;;;;1.92;0.85;;;7.70;98.50;;;;;;6284422;22;20172;-52
2021/12/05 13:26:42;;;;;;;3.08;1.40;;;7.80;98.70;;;;;;6283767;22;20289;-52
2021/12/05 13:29:18;;;;;;;1.90;1.08;;;7.70;98.20;;;;;;6260323;22;20164;-51
2021/12/05 13:31:48;;;;;;;4.63;1.60;;;8.20;98.50;;;;;;6272872;22;20214;-51
2021/12/05 13:34:22;;;;;;;1.80;1.30;;;7.70;99.00;;;;;;6272482;22;20172;-50
2021/12/05 13:37:20;;;;;;;1.13;0.98;;;7.70;98.60;;;;;;6271636;22;20661;-50
2021/12/05 13:40:12;;;;;;;1.85;1.08;;;7.30;98.20;;;;;;6283329;22;20215;-50
2021/12/05 13:42:42;;;;;;;1.50;1.25;;;7.60;98.70;;;;;;6283374;22;20164;-50
2021/12/05 13:45:13;;;;;;;2.13;0.90;;;7.60;98.30;;;;;;6272627;22;20153;-50
2021/12/05 13:47:43;;;;;;;1.85;0.90;;;7.60;98.60;;;;;;6283430;22;20148;-50
2021/12/05 13:50:29;;;;;;;2.85;1.15;;;7.30;99.10;;;;;;6282613;22;20182;-49
2021/12/05 13:53:07;;;;;;;0.70;0.70;;;6.80;99.30;;;;;;6282979;22;20168;-51
2021/12/05 13:56:03;;;;;;;1.73;1.30;;;7.30;99.90;;;;;;6282783;22;20176;-51
2021/12/05 13:58:53;;;;;;;1.08;0.90;;;7.60;99.90;;;;;;6270952;22;20576;-50
2021/12/05 14:01:22;;;;;;;2.83;1.30;;;7.00;99.90;;;;;;6272231;22;20160;-50
2021/12/05 14:03:50;;;;;;;1.40;1.10;;;7.00;99.90;;;;;;6273430;22;20179;-50
2021/12/05 14:06:27;;;;;;;2.97;1.40;;;7.00;99.90;;;;;;6283010;22;20145;-51
2021/12/05 14:08:57;;;;;;;2.05;1.52;;;7.00;99.90;;;;;;6272844;22;20190;-50
2021/12/05 14:11:25;;;;;;;0.90;0.90;;;7.20;99.90;;;;;;6272497;22;20226;-50
2021/12/05 14:13:50;;;;;;;0.98;0.93;;;6.50;99.90;;;;;;6283710;22;20165;-50
2021/12/05 14:16:17;;;;;;;2.43;1.40;;;6.90;99.90;;;;;;6282935;22;20141;-51
2021/12/05 14:18:42;;;;;;;2.28;0.93;;;7.10;99.90;;;;;;6282522;22;20596;-51
2021/12/05 14:21:17;;;;;;;1.13;0.80;;;7.00;99.90;;;;;;6272103;22;20218;-51
2021/12/05 14:23:51;;;;;;;1.05;0.95;;;7.10;99.90;;;;;;6273121;22;20644;-51
2021/12/05 14:26:19;;;;;;;1.13;0.90;;;7.00;99.90;;;;;;6282609;22;20149;-50
2021/12/05 14:28:59;;;;;;;1.30;1.20;;;7.10;99.90;;;;;;6273114;22;20157;-50
2021/12/05 14:31:28;;;;;;;1.55;1.30;;;7.20;99.90;;;;;;6282208;22;20184;-50
2021/12/05 14:33:55;;;;;;;2.25;1.48;;;7.10;99.90;;;;;;6283353;22;20195;-51
2021/12/05 14:36:28;;;;;;;1.30;1.20;;;7.20;99.90;;;;;;6283452;22;20155;-51
2021/12/05 14:39:15;;;;;;;2.25;1.40;;;7.20;99.90;;;;;;6283707;22;20545;-51
2021/12/05 14:41:43;;;;;;;1.50;1.40;;;7.40;99.90;;;;;;6272429;22;20156;-50
2021/12/05 14:44:09;;;;;;;1.92;1.25;;;7.40;99.90;;;;;;6283100;22;20168;-51
2021/12/05 14:46:48;;;;;;;1.67;1.35;;;7.30;99.90;;;;;;6282877;22;20487;-51
2021/12/05 14:49:14;;;;;;;1.30;1.20;;;6.90;99.90;;;;;;6272776;22;20164;-51
2021/12/05 14:51:41;;;;;;;0.98;0.90;;;7.10;99.90;;;;;;6282348;22;20233;-50
2021/12/05 14:54:08;;;;;;;1.60;1.10;;;7.20;99.90;;;;;;6283095;22;20218;-51
2021/12/05 14:56:37;;;;;;;1.30;1.20;;;7.00;99.90;;;;;;6283217;22;20227;-51
2021/12/05 14:59:09;;;;;;;1.83;1.65;;;6.70;99.90;;;;;;6283397;22;20183;-51
2021/12/05 15:01:38;;;;;;;2.97;2.20;;;7.20;99.90;;;;;;6282661;22;20502;-51
2021/12/05 15:04:06;;;;;;;5.13;2.28;;;7.20;99.90;;;;;;6272428;22;20301;-51
2021/12/05 15:06:37;;;;;;;1.85;1.60;;;7.30;99.90;;;;;;6282690;22;20591;-51
2021/12/05 15:09:07;;;;;;;2.53;2.33;;;7.30;99.90;;;;;;6282954;22;20520;-51
2021/12/05 15:11:34;;;;;;;3.30;2.75;;;7.10;99.90;;;;;;6282121;22;20172;-50
2021/12/05 15:14:07;;;;;;;2.15;2.03;;;7.20;99.90;;;;;;6282697;22;20179;-49
2021/12/05 15:16:33;;;;;;;2.20;1.40;;;7.10;99.90;;;;;;6283109;22;20148;-50
2021/12/05 15:18:59;;;;;;;1.42;1.23;;;7.30;99.90;;;;;;6272273;22;20159;-50
2021/12/05 15:21:27;;;;;;;1.50;1.40;;;6.60;99.90;;;;;;6282181;22;20187;-50
2021/12/05 15:23:54;;;;;;;3.67;1.70;;;7.30;99.90;;;;;;6282139;22;20716;-50
2021/12/05 15:26:20;;;;;;;4.70;1.58;;;7.20;99.90;;;;;;6271810;22;20536;-50
2021/12/05 15:28:47;;;;;;;1.90;1.58;;;7.30;99.90;;;;;;6282037;22;20495;-49
2021/12/05 15:31:13;;;;;;;1.90;1.40;;;7.00;99.90;;;;;;6282602;22;20175;-52
2021/12/05 15:33:39;;;;;;;1.70;1.45;;;7.00;99.90;;;;;;6283708;22;20168;-50
2021/12/05 15:36:06;;;;;;;2.78;1.77;;;7.40;99.90;;;;;;6284281;22;20173;-50
2021/12/05 15:38:34;;;;;;;2.80;2.10;;;7.30;99.90;;;;;;6273639;22;20230;-51
2021/12/05 15:41:07;;;;;;;4.07;1.98;;;7.00;99.90;;;;;;6284250;22;20183;-50
2021/12/05 15:43:36;;;;;;;2.25;1.60;;;7.00;99.90;;;;;;6284622;22;20180;-50
2021/12/05 15:46:04;;;;;;;2.28;1.92;;;6.50;99.90;;;;;;6273456;22;20160;-53
2021/12/05 15:48:35;;;;;;;3.15;2.20;;;6.90;99.90;;;;;;6273385;22;20157;-53
2021/12/05 15:51:06;;;;;;;2.40;2.20;;;6.90;99.90;;;;;;6284460;22;20575;-52
2021/12/05 15:53:34;;;;;;;2.70;2.50;;;6.60;99.90;;;;;;6283555;22;20182;-51
2021/12/05 15:56:06;;;;;;;6.00;2.30;;;6.00;99.90;;;;;;6271539;22;20243;-53
2021/12/05 15:58:42;;;;;;;3.22;2.72;;;6.30;99.90;;;;;;6283822;22;20212;-51
2021/12/05 16:01:14;;;;;;;3.20;2.20;;;6.50;99.90;;;;;;6284671;22;20230;-52
2021/12/05 16:03:53;;;;;;;4.00;2.55;;;6.40;99.90;;;;;;6283916;22;20172;-54
2021/12/05 16:06:29;;;;;;;7.22;5.53;;;6.30;99.90;;;;;;6284672;22;20152;-53
2021/12/05 16:08:54;;;;;;;8.13;6.18;;;6.40;99.90;;;;;;6273668;22;20510;-51
2021/12/05 16:11:21;;;;;;;6.50;4.60;;;6.60;99.90;;;;;;6283283;22;20189;-51
2021/12/05 16:13:50;;;;;;;6.32;4.95;;;6.50;99.90;;;;;;6272121;22;20196;-51
2021/12/05 16:16:25;;;;;;;4.38;3.97;;;6.60;99.90;;;;;;6273507;22;20470;-51
2021/12/05 16:18:55;;;;;;;4.18;3.78;;;6.60;99.90;;;;;;6273343;22;20603;-50
2021/12/05 16:21:31;;;;;;;5.05;3.00;;;6.30;99.90;;;;;;6284395;22;20686;-51
2021/12/05 16:24:11;;;;;;;4.00;3.05;;;6.30;99.90;;;;;;6283115;22;20257;-52
2021/12/05 16:26:38;;;;;;;3.97;2.80;;;6.30;99.90;;;;;;6273226;22;20160;-52
2021/12/05 16:29:17;;;;;;;2.92;2.55;;;6.60;99.90;;;;;;6283776;22;20152;-51
2021/12/05 16:31:50;;;;;;;4.13;2.72;;;6.60;99.90;;;;;;6273997;22;20201;-52
2021/12/05 16:34:23;;;;;;;4.85;3.00;;;5.90;99.90;;;;;;6273000;22;20186;-51
2021/12/05 16:37:04;;;;;;;3.45;2.80;;;6.20;99.90;;;;;;6272733;22;20160;-51
2021/12/05 16:39:34;;;;;;;3.92;3.17;;;6.20;99.90;;;;;;6283884;22;20217;-51
2021/12/05 16:42:07;;;;;;;2.85;2.60;;;6.20;99.90;;;;;;6283757;22;20281;-51
2021/12/05 16:44:37;;;;;;;3.35;2.45;;;6.00;99.90;;;;;;6273564;22;20203;-51
2021/12/05 16:47:13;;;;;;;2.80;2.47;;;6.10;99.90;;;;;;6283708;22;20230;-52
2021/12/05 16:49:42;;;;;;;5.55;5.05;;;6.20;99.90;;;;;;6283348;22;20208;-51
2021/12/05 16:52:29;;;;;;;4.15;3.75;;;6.30;99.90;;;;;;6273099;22;20258;-51
2021/12/05 16:55:01;;;;;;;5.88;4.03;;;6.40;99.90;;;;;;6272246;22;20232;-51
2021/12/05 16:57:34;;;;;;;4.43;3.75;;;6.20;99.90;;;;;;6282777;22;20145;-51
2021/12/05 17:00:08;;;;;;;4.80;4.32;;;6.40;99.90;;;;;;6272721;22;20205;-51
2021/12/05 17:02:55;;;;;;;5.63;4.32;;;6.30;99.90;;;;;;6273853;22;20657;-52
2021/12/05 17:05:37;;;;;;;4.75;4.35;;;6.10;99.90;;;;;;6272653;22;20159;-52
2021/12/05 17:08:15;;;;;;;4.35;3.95;;;6.20;99.90;;;;;;6272714;22;20156;-52
2021/12/05 17:10:45;;;;;;;5.78;4.70;;;6.30;99.90;;;;;;6272462;22;20179;-51
2021/12/05 17:13:20;;;;;;;6.38;4.90;;;6.10;99.90;;;;;;6273314;22;20175;-51
2021/12/05 17:16:08;;;;;;;5.43;4.45;;;6.00;99.90;;;;;;6283817;22;20140;-51
2021/12/05 17:18:41;;;;;;;6.85;4.20;;;5.60;99.90;;;;;;6272769;22;20150;-52
2021/12/05 17:21:19;;;;;;;6.32;4.35;;;5.80;99.90;;;;;;6283970;22;20137;-52
2021/12/05 17:23:59;;;;;;;4.50;4.10;;;5.70;99.90;;;;;;6282644;22;20721;-51
2021/12/05 17:26:34;;;;;;;7.60;4.55;;;5.70;99.90;;;;;;6271823;22;20607;-51
2021/12/05 17:29:09;;;;;;;6.38;3.80;;;5.80;99.90;;;;;;6272259;22;20165;-52
2021/12/05 17:31:42;;;;;;;5.15;4.38;;;5.90;99.90;;;;;;6272669;22;20525;-51
2021/12/05 17:34:11;;;;;;;8.68;6.35;;;5.80;99.90;;;;;;6283400;22;20507;-49
2021/12/05 17:36:38;;;;;;;50.88;38.85;;;5.50;99.90;;;;;;6273362;22;20165;-52
2021/12/05 17:39:09;;;;;;;12.38;8.35;;;5.80;99.90;;;;;;6283067;22;20159;-52
2021/12/05 17:41:36;;;;;;;9.13;7.05;;;5.20;99.90;;;;;;6283197;22;20704;-52
2021/12/05 17:44:03;;;;;;;6.43;5.05;;;5.10;99.90;;;;;;6272348;22;20243;-52
2021/12/05 17:46:31;;;;;;;8.10;5.03;;;5.30;99.90;;;;;;6283675;22;20151;-52
2021/12/05 17:48:58;;;;;;;4.82;4.30;;;4.50;99.90;;;;;;6271991;22;20163;-52
2021/12/05 17:51:31;;;;;;;9.60;6.60;;;5.00;99.90;;;;;;6282929;22;20191;-49
2021/12/05 17:53:58;;;;;;;5.85;5.25;;;5.20;99.90;;;;;;6272993;22;20258;-51
2021/12/05 17:56:39;;;;;;;7.07;5.18;;;4.80;99.90;;;;;;6283145;22;20217;-52
2021/12/05 17:59:24;;;;;;;6.15;4.18;;;5.00;99.90;;;;;;6282747;22;20162;-52
2021/12/05 18:04:35;;;;;;;6.15;5.43;;;4.90;99.90;;;;;;6282678;22;20156;-53
2021/12/05 18:07:00;;;;;;;5.10;4.43;;;4.80;99.90;;;;;;6282414;22;20156;-50
2021/12/05 18:09:26;;;;;;;6.13;4.77;;;5.00;99.90;;;;;;6282998;22;20156;-52
2021/12/05 18:11:53;;;;;;;7.30;5.20;;;4.90;99.90;;;;;;6282632;22;20623;-52
2021/12/05 18:14:19;;;;;;;4.65;4.25;;;4.90;99.90;;;;;;6272747;22;20195;-50
2021/12/05 18:16:45;;;;;;;6.00;4.70;;;4.60;99.90;;;;;;6282557;22;20606;-52
2021/12/05 18:19:15;;;;;;;6.13;4.20;;;4.70;99.90;;;;;;6272491;22;20564;-53
2021/12/05 18:21:43;;;;;;;7.85;4.10;;;4.80;99.90;;;;;;6283328;22;20148;-52
2021/12/05 18:24:12;;;;;;;6.50;5.28;;;4.20;99.90;;;;;;6282468;22;20180;-52
2021/12/05 18:26:39;;;;;;;6.32;5.32;;;4.70;99.90;;;;;;6282760;22;20176;-52
2021/12/05 18:29:10;;;;;;;6.57;5.45;;;4.60;99.90;;;;;;6282716;22;20160;-52
2021/12/05 18:31:37;;;;;;;8.95;5.65;;;4.60;99.90;;;;;;6283074;22;20170;-52
2021/12/05 18:34:08;;;;;;;7.78;6.03;;;4.60;99.90;;;;;;6272367;22;20174;-52
2021/12/05 18:36:37;;;;;;;7.55;5.18;;;4.60;99.90;;;;;;6283355;22;20158;-52
2021/12/05 18:39:08;;;;;;;6.65;5.50;;;4.70;99.90;;;;;;6272163;22;20567;-52
2021/12/05 18:41:35;;;;;;;6.72;5.10;;;4.40;99.90;;;;;;6272167;22;20150;-52
2021/12/05 18:44:04;;;;;;;7.22;5.05;;;3.70;99.90;;;;;;6272999;22;20276;-52
2021/12/05 18:46:30;;;;;;;5.53;4.68;;;4.40;99.90;;;;;;6271614;22;20154;-52
2021/12/05 18:48:55;;;;;;;6.10;5.50;;;4.40;99.90;;;;;;6283019;22;20157;-53
2021/12/05 18:51:21;;;;;;;5.90;5.30;;;4.40;99.90;;;;;;6283014;22;20631;-52
2021/12/05 18:53:49;;;;;;;6.00;5.40;;;4.50;99.90;;;;;;6282549;22;20245;-53